Time;durP1;ratioP1;P1;durP2;ratioP2;P2;SDS_P1;SDS_P2;PMS_P1;PMS_P2;Temp;Humidity;BMP_temperature;BMP_pressure;BME280_temperature;BME280_humidity;BME280_pressure;Samples;Min_cycle;Max_cycle;Signal;HPM_P1;HPM_P2
2022/08/06 00:00:49;;;;;;;5.95;1.42;;;18.70;55.80;;;;;;5031079;28;20033;-65
2022/08/06 00:03:15;;;;;;;4.97;1.42;;;18.70;55.90;;;;;;5026458;28;20034;-65
2022/08/06 00:05:40;;;;;;;6.57;1.98;;;18.70;56.00;;;;;;5001200;28;20336;-65
2022/08/06 00:08:06;;;;;;;5.18;1.30;;;18.70;56.00;;;;;;5009019;28;20053;-65
2022/08/06 00:10:32;;;;;;;4.70;1.40;;;18.70;56.10;;;;;;5029342;28;20167;-65
2022/08/06 00:12:58;;;;;;;5.18;1.60;;;18.70;56.20;;;;;;5025836;28;20041;-65
2022/08/06 00:15:24;;;;;;;7.10;1.45;;;18.70;56.20;;;;;;5027754;28;20033;-65
2022/08/06 00:17:49;;;;;;;5.78;1.52;;;18.70;56.30;;;;;;5025098;28;20116;-65
2022/08/06 00:20:15;;;;;;;5.03;1.25;;;18.70;56.30;;;;;;5031002;28;20449;-65
2022/08/06 00:22:41;;;;;;;4.68;1.50;;;18.60;56.40;;;;;;5026022;28;20104;-65
2022/08/06 00:25:09;;;;;;;5.35;1.58;;;18.60;56.50;;;;;;5025382;28;20099;-65
2022/08/06 00:27:35;;;;;;;9.10;1.50;;;18.60;56.50;;;;;;5018461;28;20096;-65
2022/08/06 00:30:01;;;;;;;3.30;1.27;;;18.50;56.60;;;;;;5029461;28;20417;-65
2022/08/06 00:32:27;;;;;;;4.38;1.35;;;18.50;56.60;;;;;;5016802;28;20029;-65
2022/08/06 00:34:52;;;;;;;4.93;1.52;;;18.50;56.70;;;;;;5017092;28;20101;-65
2022/08/06 00:37:18;;;;;;;6.97;1.85;;;18.50;57.40;;;;;;5019928;28;20026;-65
2022/08/06 00:39:44;;;;;;;3.63;1.13;;;18.50;56.90;;;;;;5009969;28;20033;-65
2022/08/06 00:42:09;;;;;;;4.93;1.20;;;18.50;56.90;;;;;;5029313;28;20092;-65
2022/08/06 00:44:35;;;;;;;4.80;1.20;;;18.50;57.00;;;;;;5017068;28;20113;-65
2022/08/06 00:47:01;;;;;;;5.45;1.40;;;18.50;57.10;;;;;;5028132;28;20427;-65
2022/08/06 00:49:27;;;;;;;5.90;1.50;;;18.40;57.10;;;;;;5019333;28;20030;-65
2022/08/06 00:51:52;;;;;;;5.60;1.45;;;18.40;57.20;;;;;;5031849;28;20029;-65
2022/08/06 00:54:20;;;;;;;6.10;1.70;;;18.40;57.30;;;;;;5012210;28;20045;-65
2022/08/06 00:56:45;;;;;;;4.05;1.30;;;18.40;57.40;;;;;;5027686;28;20028;-65
2022/08/06 00:59:11;;;;;;;7.05;1.55;;;18.40;57.50;;;;;;5010223;28;20382;-65
2022/08/06 01:01:37;;;;;;;5.65;1.48;;;18.40;57.60;;;;;;5028600;28;20036;-65
2022/08/06 01:04:03;;;;;;;4.32;1.30;;;18.40;57.70;;;;;;5017999;28;20037;-65
2022/08/06 01:06:29;;;;;;;4.43;1.38;;;18.40;58.40;;;;;;5022268;28;20030;-65
2022/08/06 01:08:54;;;;;;;5.57;1.45;;;18.30;57.90;;;;;;5012700;28;20028;-65
2022/08/06 01:11:20;;;;;;;3.58;1.10;;;18.30;57.90;;;;;;5007570;28;20488;-65
2022/08/06 01:13:46;;;;;;;8.90;1.58;;;18.30;58.00;;;;;;5014956;28;20586;-65
2022/08/06 01:16:49;;;;;;;8.45;1.73;;;18.30;58.10;;;;;;5019592;28;20060;-65
2022/08/06 01:19:58;;;;;;;4.88;1.30;;;18.30;58.20;;;;;;5014419;28;20471;-65
2022/08/06 01:22:51;;;;;;;2.92;1.00;;;18.30;58.20;;;;;;5029353;28;20390;-65
2022/08/06 01:25:31;;;;;;;4.15;1.10;;;18.20;59.00;;;;;;5009801;28;20435;-65
2022/08/06 01:28:12;;;;;;;4.23;1.00;;;18.20;58.40;;;;;;5027131;28;20085;-65
2022/08/06 01:30:51;;;;;;;4.22;1.30;;;18.20;58.50;;;;;;5032057;28;20275;-65
2022/08/06 01:33:31;;;;;;;7.43;1.50;;;18.10;58.60;;;;;;5023459;28;21223;-65
2022/08/06 01:36:01;;;;;;;4.93;1.27;;;18.10;58.60;;;;;;5010334;28;20023;-65
2022/08/06 01:38:33;;;;;;;4.88;1.40;;;18.10;58.80;;;;;;5031808;28;20029;-65
2022/08/06 01:41:01;;;;;;;;;;;18.10;58.80;;;;;;5025153;28;20037;-65
2022/08/06 01:43:27;;;;;;;4.22;1.25;;;18.10;58.70;;;;;;5020116;28;19917;-65
2022/08/06 01:45:55;;;;;;;4.07;1.38;;;18.10;58.80;;;;;;5014252;28;20145;-64
2022/08/06 01:48:25;;;;;;;4.57;1.30;;;18.10;58.80;;;;;;5029392;28;20025;-65
2022/08/06 01:50:54;;;;;;;9.80;1.70;;;18.10;58.90;;;;;;5016763;28;20026;-65
2022/08/06 01:53:27;;;;;;;4.38;1.10;;;18.00;58.90;;;;;;5016278;28;20030;-65
2022/08/06 01:55:56;;;;;;;4.85;1.10;;;18.00;59.00;;;;;;5011805;28;20034;-65
2022/08/06 01:58:27;;;;;;;3.72;1.25;;;18.00;59.00;;;;;;5005426;28;20469;-65
2022/08/06 02:00:55;;;;;;;5.78;1.33;;;18.10;59.10;;;;;;5028063;28;20053;-65
2022/08/06 02:03:29;;;;;;;3.42;1.23;;;18.00;59.00;;;;;;5026949;28;20022;-65
2022/08/06 02:05:57;;;;;;;6.70;1.40;;;18.00;59.10;;;;;;5026929;28;20109;-64
2022/08/06 02:08:29;;;;;;;5.05;1.20;;;18.00;59.10;;;;;;5011732;28;20072;-65
2022/08/06 02:10:56;;;;;;;4.88;1.50;;;18.00;59.20;;;;;;5017124;28;20444;-65
2022/08/06 02:13:24;;;;;;;6.95;1.70;;;17.90;59.20;;;;;;5023076;28;20072;-64
2022/08/06 02:15:52;;;;;;;5.50;1.58;;;18.00;59.30;;;;;;5015754;28;20026;-64
2022/08/06 02:18:20;;;;;;;5.18;1.38;;;17.90;59.30;;;;;;5024541;28;20048;-65
2022/08/06 02:20:49;;;;;;;5.65;1.73;;;17.90;59.30;;;;;;5019970;28;20025;-64
2022/08/06 02:23:21;;;;;;;5.75;1.42;;;17.90;59.30;;;;;;5017686;28;20030;-65
2022/08/06 02:25:49;;;;;;;7.38;1.80;;;17.90;59.30;;;;;;5020147;28;20038;-65
2022/08/06 02:28:18;;;;;;;5.35;1.42;;;17.90;59.30;;;;;;5028021;28;20029;-65
2022/08/06 02:30:46;;;;;;;4.85;1.42;;;17.80;59.30;;;;;;5019894;28;20021;-65
2022/08/06 02:33:12;;;;;;;5.03;1.58;;;17.80;59.40;;;;;;5015788;28;20029;-67
2022/08/06 02:35:45;;;;;;;3.55;1.23;;;17.80;59.50;;;;;;5019363;28;20331;-65
2022/08/06 02:38:26;;;;;;;5.68;1.50;;;17.80;59.50;;;;;;5020982;28;20052;-65
2022/08/06 02:41:00;;;;;;;4.88;1.48;;;17.70;59.50;;;;;;5025781;28;20059;-65
2022/08/06 02:43:34;;;;;;;5.55;1.60;;;17.70;59.50;;;;;;5028307;28;20029;-65
2022/08/06 02:46:28;;;;;;;6.03;1.60;;;17.70;59.50;;;;;;5022057;28;20044;-65
2022/08/06 02:49:00;;;;;;;6.25;1.65;;;17.70;59.50;;;;;;4999726;28;20038;-65
2022/08/06 02:51:32;;;;;;;6.65;1.45;;;17.70;59.70;;;;;;5015408;28;20068;-65
2022/08/06 02:54:11;;;;;;;4.13;1.20;;;17.70;59.70;;;;;;5028882;28;20423;-65
2022/08/06 02:56:42;;;;;;;5.70;1.90;;;17.60;59.80;;;;;;5032485;28;20040;-65
2022/08/06 02:59:10;;;;;;;6.70;1.60;;;17.60;59.80;;;;;;5026137;28;20037;-65
2022/08/06 03:01:40;;;;;;;6.38;1.60;;;17.60;59.80;;;;;;5022956;28;20018;-65
2022/08/06 03:04:07;;;;;;;4.57;1.20;;;17.50;59.90;;;;;;5016010;28;20030;-64
2022/08/06 03:06:36;;;;;;;5.60;1.48;;;17.60;60.00;;;;;;5014059;28;20323;-65
2022/08/06 03:09:05;;;;;;;7.55;1.60;;;17.50;60.00;;;;;;5014287;28;20097;-65
2022/08/06 03:11:34;;;;;;;3.83;1.38;;;17.50;60.10;;;;;;4992620;28;1085106;-64
2022/08/06 03:14:04;;;;;;;4.30;1.25;;;17.50;60.10;;;;;;5008024;28;20030;-65
2022/08/06 03:16:35;;;;;;;4.78;1.20;;;17.50;60.20;;;;;;5026447;28;20025;-65
2022/08/06 03:19:02;;;;;;;5.35;1.35;;;17.50;60.20;;;;;;5011268;28;20033;-64
2022/08/06 03:21:29;;;;;;;4.90;1.48;;;17.50;60.30;;;;;;5028883;28;20335;-65
2022/08/06 03:23:57;;;;;;;4.63;1.52;;;17.40;60.30;;;;;;5013322;28;20033;-64
2022/08/06 03:26:25;;;;;;;5.32;1.40;;;17.40;60.30;;;;;;5016058;28;20229;-65
2022/08/06 03:28:53;;;;;;;5.75;1.88;;;17.40;60.40;;;;;;5018168;28;20014;-65
2022/08/06 03:31:19;;;;;;;2.92;1.30;;;17.40;60.50;;;;;;5028149;28;20094;-65
2022/08/06 03:33:45;;;;;;;4.30;1.45;;;17.40;60.50;;;;;;5021716;28;20273;-65
2022/08/06 03:36:12;;;;;;;5.35;1.50;;;17.40;60.60;;;;;;5023277;28;20057;-64
2022/08/06 03:38:42;;;;;;;4.65;1.70;;;17.40;60.60;;;;;;5014758;28;20451;-65
2022/08/06 03:41:09;;;;;;;5.55;1.75;;;17.30;60.70;;;;;;5007775;28;20136;-65
2022/08/06 03:43:35;;;;;;;4.05;1.30;;;17.40;60.70;;;;;;5024315;28;20039;-65
2022/08/06 03:46:03;;;;;;;5.68;1.67;;;17.40;60.70;;;;;;5019264;28;20108;-65
2022/08/06 03:48:34;;;;;;;4.22;1.50;;;17.30;60.70;;;;;;5016416;28;21488;-65
2022/08/06 03:51:03;;;;;;;5.57;1.60;;;17.30;60.70;;;;;;5022244;28;20370;-65
2022/08/06 03:53:34;;;;;;;4.82;1.50;;;17.30;60.80;;;;;;5013852;28;20113;-64
2022/08/06 03:56:01;;;;;;;4.47;1.48;;;17.30;60.80;;;;;;5019538;28;20359;-65
2022/08/06 03:58:32;;;;;;;3.85;1.40;;;17.30;60.80;;;;;;5028010;28;20061;-65
2022/08/06 04:01:05;;;;;;;4.25;1.63;;;17.30;60.90;;;;;;5025132;28;20550;-65
2022/08/06 04:03:34;;;;;;;5.22;1.60;;;17.30;61.00;;;;;;5020394;28;20037;-66
2022/08/06 04:06:00;;;;;;;4.05;1.27;;;17.20;61.00;;;;;;5019226;28;20047;-65
2022/08/06 04:08:26;;;;;;;7.28;1.90;;;17.20;61.00;;;;;;5003399;28;20354;-65
2022/08/06 04:10:52;;;;;;;5.13;1.75;;;17.20;61.10;;;;;;5014436;28;20076;-65
2022/08/06 04:13:21;;;;;;;8.90;1.85;;;17.20;61.10;;;;;;5022252;28;20034;-65
2022/08/06 04:15:48;;;;;;;5.38;1.73;;;17.20;61.10;;;;;;5023532;28;20018;-66
2022/08/06 04:18:17;;;;;;;5.28;1.85;;;17.20;61.10;;;;;;5028172;28;20435;-65
2022/08/06 04:20:48;;;;;;;5.07;1.60;;;17.20;61.10;;;;;;5025613;28;20370;-66
2022/08/06 04:23:14;;;;;;;7.32;1.67;;;17.20;61.10;;;;;;5006986;28;21962;-66
2022/08/06 04:26:07;;;;;;;4.78;1.80;;;17.20;61.20;;;;;;5020958;28;20029;-66
2022/08/06 04:28:36;;;;;;;5.15;1.77;;;17.20;61.10;;;;;;5026355;28;20458;-66
2022/08/06 04:31:03;;;;;;;3.67;1.40;;;17.20;61.20;;;;;;5013536;28;20076;-66
2022/08/06 04:33:30;;;;;;;6.45;1.80;;;17.20;61.20;;;;;;5006758;28;20022;-66
2022/08/06 04:36:04;;;;;;;6.50;1.73;;;17.30;61.20;;;;;;5012841;28;20053;-65
2022/08/06 04:38:31;;;;;;;6.53;1.98;;;17.30;61.10;;;;;;5015145;28;20045;-67
2022/08/06 04:40:58;;;;;;;7.13;2.22;;;17.40;61.10;;;;;;5022304;28;20442;-67
2022/08/06 04:43:24;;;;;;;4.50;1.75;;;17.40;61.10;;;;;;5009783;28;20026;-67
2022/08/06 04:45:50;;;;;;;4.50;1.60;;;17.40;61.00;;;;;;5010824;28;20044;-67
2022/08/06 04:48:17;;;;;;;6.10;1.70;;;17.40;60.90;;;;;;5006078;28;20041;-67
2022/08/06 04:50:43;;;;;;;4.35;1.48;;;17.40;60.90;;;;;;5001390;28;20130;-67
2022/08/06 04:53:12;;;;;;;3.95;1.65;;;17.40;60.90;;;;;;5002669;28;20068;-68
2022/08/06 04:55:38;;;;;;;5.95;1.80;;;17.40;61.00;;;;;;5010433;28;20087;-68
2022/08/06 04:58:06;;;;;;;4.55;1.90;;;17.40;61.00;;;;;;5005176;28;20498;-67
2022/08/06 05:00:37;;;;;;;3.45;1.38;;;17.50;61.10;;;;;;5007345;28;20070;-68
2022/08/06 05:03:04;;;;;;;5.60;1.77;;;17.50;61.10;;;;;;5012735;28;20034;-68
2022/08/06 05:05:34;;;;;;;4.18;1.73;;;17.50;61.10;;;;;;5013609;28;20354;-68
2022/08/06 05:08:02;;;;;;;5.47;1.70;;;17.50;61.10;;;;;;5012515;28;20475;-68
2022/08/06 05:10:44;;;;;;;4.57;1.60;;;17.50;61.10;;;;;;5011523;28;20037;-68
2022/08/06 05:13:13;;;;;;;6.03;2.13;;;17.50;61.10;;;;;;5014422;28;20117;-68
2022/08/06 05:15:43;;;;;;;5.75;1.75;;;17.50;61.00;;;;;;5013283;28;20316;-68
2022/08/06 05:18:33;;;;;;;5.17;2.23;;;17.60;60.90;;;;;;5013429;28;20026;-68
2022/08/06 05:21:01;;;;;;;8.10;1.77;;;17.60;60.90;;;;;;5000659;28;20049;-68
2022/08/06 05:23:35;;;;;;;5.60;1.60;;;17.70;60.90;;;;;;5014060;28;20448;-68
2022/08/06 05:26:01;;;;;;;4.40;1.83;;;17.70;61.00;;;;;;5011718;28;20030;-68
2022/08/06 05:28:26;;;;;;;6.68;1.80;;;17.80;60.90;;;;;;5018021;28;20060;-68
2022/08/06 05:30:52;;;;;;;4.40;1.50;;;17.80;60.90;;;;;;5012898;28;20066;-68
2022/08/06 05:33:25;;;;;;;7.22;1.60;;;17.90;60.90;;;;;;5008577;28;20423;-69
2022/08/06 05:35:50;;;;;;;3.72;1.45;;;18.00;61.00;;;;;;5011391;28;20032;-69
2022/08/06 05:38:16;;;;;;;5.45;1.88;;;18.10;61.00;;;;;;5012269;28;20451;-69
2022/08/06 05:40:42;;;;;;;7.28;1.98;;;18.10;61.20;;;;;;5024714;28;20044;-70
2022/08/06 05:43:07;;;;;;;7.53;1.63;;;18.20;61.20;;;;;;5003416;28;20065;-69
2022/08/06 05:45:34;;;;;;;4.47;1.90;;;18.20;61.20;;;;;;5021602;28;20355;-68
2022/08/06 05:48:04;;;;;;;3.75;1.55;;;18.20;61.20;;;;;;5018070;28;20347;-68
2022/08/06 05:50:34;;;;;;;9.30;1.80;;;18.20;61.40;;;;;;5025074;28;20077;-68
2022/08/06 05:53:18;;;;;;;4.77;1.80;;;18.20;61.50;;;;;;5036942;28;20033;-68
2022/08/06 05:56:01;;;;;;;5.40;1.95;;;18.20;61.30;;;;;;5023204;28;20159;-68
2022/08/06 05:58:30;;;;;;;6.15;1.80;;;18.20;61.00;;;;;;5010851;28;20100;-69
2022/08/06 06:01:01;;;;;;;5.75;2.13;;;18.20;61.00;;;;;;5021331;28;20041;-68
2022/08/06 06:03:27;;;;;;;5.53;1.80;;;18.20;60.90;;;;;;5023247;28;20053;-68
2022/08/06 06:05:59;;;;;;;6.78;2.03;;;18.10;60.90;;;;;;5032697;28;20029;-69
2022/08/06 06:08:25;;;;;;;8.20;2.15;;;18.10;61.00;;;;;;5026907;28;20083;-68
2022/08/06 06:10:52;;;;;;;4.25;1.67;;;18.20;60.90;;;;;;5022225;28;20042;-68
2022/08/06 06:13:19;;;;;;;4.95;1.67;;;18.30;60.70;;;;;;5024097;28;20033;-68
2022/08/06 06:15:50;;;;;;;4.53;1.80;;;18.30;60.40;;;;;;5029207;28;20034;-68
2022/08/06 06:18:41;;;;;;;6.32;1.67;;;18.40;60.10;;;;;;5019241;28;20044;-69
2022/08/06 06:21:31;;;;;;;2.97;1.20;;;18.60;59.80;;;;;;5023820;28;20033;-68
2022/08/06 06:24:10;;;;;;;5.90;1.52;;;18.80;59.60;;;;;;5013284;28;20275;-69
2022/08/06 06:26:47;;;;;;;5.65;1.63;;;19.00;59.20;;;;;;5024062;28;20358;-68
2022/08/06 06:29:28;;;;;;;4.00;1.27;;;19.30;58.80;;;;;;5036350;28;20129;-68
2022/08/06 06:32:01;;;;;;;3.70;1.40;;;19.60;58.50;;;;;;5024926;28;20411;-69
2022/08/06 06:35:13;;;;;;;3.20;1.05;;;19.90;58.10;;;;;;5036318;28;20047;-69
2022/08/06 06:37:59;;;;;;;5.35;1.10;;;20.20;57.60;;;;;;5029969;28;20038;-69
2022/08/06 06:40:46;;;;;;;3.90;1.25;;;20.50;57.10;;;;;;5028061;28;20026;-68
2022/08/06 06:43:27;;;;;;;4.93;1.20;;;20.70;56.70;;;;;;5029753;28;20025;-68
2022/08/06 06:46:17;;;;;;;5.05;1.30;;;20.80;56.50;;;;;;4995659;28;20029;-69
2022/08/06 06:48:49;;;;;;;5.07;1.10;;;21.00;56.10;;;;;;5031413;28;20503;-69
2022/08/06 06:51:32;;;;;;;4.60;1.20;;;21.20;55.70;;;;;;5015328;28;20041;-69
2022/08/06 06:53:58;;;;;;;4.15;1.20;;;21.40;55.00;;;;;;5016145;28;20506;-69
2022/08/06 06:56:31;;;;;;;4.25;1.10;;;21.50;54.60;;;;;;5021926;28;20033;-68
2022/08/06 06:59:13;;;;;;;2.40;0.77;;;21.60;54.20;;;;;;5019088;28;20092;-69
2022/08/06 07:01:40;;;;;;;6.00;1.50;;;21.60;54.10;;;;;;5025555;28;20027;-69
2022/08/06 07:04:13;;;;;;;2.00;0.70;;;21.60;54.00;;;;;;5018986;28;20023;-69
2022/08/06 07:06:40;;;;;;;3.47;0.93;;;21.80;53.80;;;;;;5025166;28;20120;-68
2022/08/06 07:09:07;;;;;;;3.42;0.90;;;21.90;53.50;;;;;;5005089;28;20030;-68
2022/08/06 07:11:34;;;;;;;4.43;1.05;;;22.00;53.10;;;;;;5024263;28;20054;-67
2022/08/06 07:14:02;;;;;;;3.33;0.80;;;22.20;53.00;;;;;;5033865;28;20029;-67
2022/08/06 07:16:31;;;;;;;3.53;0.80;;;22.20;52.70;;;;;;5031004;28;20022;-67
2022/08/06 07:19:00;;;;;;;2.65;0.90;;;22.20;52.50;;;;;;5020953;28;20446;-67
2022/08/06 07:21:26;;;;;;;2.97;1.02;;;22.20;52.60;;;;;;5013944;28;20022;-67
2022/08/06 07:23:52;;;;;;;3.35;1.00;;;22.30;52.50;;;;;;5011204;28;20347;-67
2022/08/06 07:26:20;;;;;;;5.95;1.33;;;22.50;52.20;;;;;;5017396;28;20081;-68
2022/08/06 07:28:47;;;;;;;5.30;1.15;;;22.60;52.10;;;;;;5027489;28;20057;-68
2022/08/06 07:31:14;;;;;;;4.03;1.25;;;22.70;51.90;;;;;;5023210;28;20463;-68
2022/08/06 07:33:42;;;;;;;3.80;1.20;;;22.80;51.60;;;;;;5026752;28;20034;-68
2022/08/06 07:36:08;;;;;;;5.57;1.35;;;22.90;51.30;;;;;;5035755;28;20041;-68
2022/08/06 07:38:39;;;;;;;1.50;0.73;;;22.90;51.10;;;;;;5025494;28;20530;-68
2022/08/06 07:41:07;;;;;;;5.03;1.10;;;23.10;51.00;;;;;;5029472;28;20036;-68
2022/08/06 07:43:40;;;;;;;2.92;0.82;;;23.20;50.70;;;;;;5011572;28;20030;-68
2022/08/06 07:46:08;;;;;;;3.97;0.90;;;23.30;50.50;;;;;;5035106;28;20057;-68
2022/08/06 07:48:41;;;;;;;2.97;0.80;;;23.40;50.20;;;;;;5016540;28;20037;-68
2022/08/06 07:51:06;;;;;;;3.30;0.95;;;23.50;49.70;;;;;;5027082;28;20343;-68
2022/08/06 07:53:35;;;;;;;2.20;0.60;;;23.50;49.50;;;;;;5026716;28;20029;-68
2022/08/06 07:56:05;;;;;;;3.58;0.85;;;23.60;49.30;;;;;;4991159;28;20022;-67
2022/08/06 07:58:32;;;;;;;2.25;0.98;;;23.60;49.00;;;;;;5020377;28;20472;-67
2022/08/06 08:00:59;;;;;;;5.10;1.20;;;23.70;48.80;;;;;;5029160;28;20034;-67
2022/08/06 08:06:18;;;;;;;2.33;0.75;;;23.90;48.20;;;;;;5035368;28;20252;-67
2022/08/06 08:08:52;;;;;;;5.20;0.82;;;24.10;47.60;;;;;;5035418;28;20021;-67
2022/08/06 08:11:18;;;;;;;3.45;0.77;;;24.20;47.20;;;;;;5034766;28;20041;-67
2022/08/06 08:13:44;;;;;;;2.63;0.68;;;24.40;47.00;;;;;;5035252;28;20476;-67
2022/08/06 08:16:14;;;;;;;2.42;0.90;;;24.50;46.50;;;;;;5035091;28;20048;-67
2022/08/06 08:18:40;;;;;;;1.90;0.60;;;24.70;45.90;;;;;;5035227;28;20119;-67
2022/08/06 08:21:08;;;;;;;1.90;0.50;;;24.80;45.60;;;;;;5034105;28;20033;-67
2022/08/06 08:23:35;;;;;;;2.72;0.68;;;24.90;45.00;;;;;;5028196;28;20447;-67
2022/08/06 08:26:02;;;;;;;2.72;0.82;;;25.10;44.50;;;;;;5029343;28;20044;-67
2022/08/06 08:28:31;;;;;;;1.50;0.60;;;25.20;44.20;;;;;;5016685;28;20347;-67
2022/08/06 08:31:01;;;;;;;2.63;0.60;;;25.30;44.50;;;;;;5027951;28;20405;-68
2022/08/06 08:33:28;;;;;;;1.88;0.70;;;25.50;44.10;;;;;;5030063;28;20366;-67
2022/08/06 08:35:54;;;;;;;2.83;0.80;;;25.60;43.00;;;;;;5023153;28;20430;-67
2022/08/06 08:38:20;;;;;;;1.30;0.60;;;25.60;42.70;;;;;;5022800;28;20057;-67
2022/08/06 08:40:49;;;;;;;3.75;0.80;;;25.70;42.60;;;;;;5013911;28;20040;-72
2022/08/06 08:43:21;;;;;;;3.10;0.80;;;25.70;42.50;;;;;;5025984;28;20034;-68
2022/08/06 08:45:50;;;;;;;3.20;0.90;;;25.70;41.80;;;;;;5033521;28;20373;-68
2022/08/06 08:48:22;;;;;;;3.85;0.82;;;25.70;41.70;;;;;;5019550;28;20125;-67
2022/08/06 08:50:48;;;;;;;3.05;0.88;;;25.70;41.70;;;;;;5014814;28;20374;-67
2022/08/06 08:53:48;;;;;;;2.95;0.77;;;25.80;42.20;;;;;;5024539;28;20026;-68
2022/08/06 08:56:13;;;;;;;3.17;0.82;;;25.90;41.30;;;;;;5007143;28;20419;-68
2022/08/06 08:58:41;;;;;;;1.63;0.65;;;26.10;41.30;;;;;;5016900;28;20048;-68
2022/08/06 09:01:08;;;;;;;1.75;0.60;;;26.30;41.20;;;;;;5022867;28;20383;-68
2022/08/06 09:03:39;;;;;;;3.17;0.73;;;26.50;40.80;;;;;;5006012;28;20084;-69
2022/08/06 09:06:05;;;;;;;2.20;0.63;;;26.50;40.30;;;;;;5012171;28;20394;-68
2022/08/06 09:08:32;;;;;;;5.18;0.88;;;26.40;40.40;;;;;;5022041;28;20030;-68
2022/08/06 09:10:59;;;;;;;2.33;0.77;;;26.50;40.30;;;;;;5001379;28;20145;-68
2022/08/06 09:13:26;;;;;;;2.10;0.75;;;26.40;40.20;;;;;;5034511;28;20087;-68
2022/08/06 09:15:52;;;;;;;2.67;0.80;;;26.30;40.20;;;;;;5023559;28;20040;-68
2022/08/06 09:18:19;;;;;;;2.35;0.95;;;26.40;40.00;;;;;;5033522;28;20026;-68
2022/08/06 09:20:45;;;;;;;2.17;0.80;;;26.50;39.80;;;;;;5019470;28;20444;-68
2022/08/06 09:23:12;;;;;;;2.50;0.80;;;26.60;39.60;;;;;;5021739;28;20040;-68
2022/08/06 09:25:52;;;;;;;2.22;0.70;;;26.70;39.40;;;;;;5020679;28;20419;-68
2022/08/06 09:28:30;;;;;;;3.42;1.13;;;26.80;39.00;;;;;;5033915;28;20072;-71
2022/08/06 09:30:58;;;;;;;2.60;0.80;;;26.70;38.80;;;;;;5021930;28;20037;-65
2022/08/06 09:33:24;;;;;;;2.97;0.95;;;26.40;39.00;;;;;;5033793;28;20358;-65
2022/08/06 09:36:19;;;;;;;2.20;1.00;;;26.20;39.30;;;;;;5021785;28;20037;-65
2022/08/06 09:38:56;;;;;;;1.27;0.50;;;25.80;39.70;;;;;;5024795;28;20042;-71
2022/08/06 09:41:24;;;;;;;1.92;0.57;;;25.50;40.00;;;;;;5027219;28;20029;-65
2022/08/06 09:43:52;;;;;;;1.70;0.70;;;25.70;40.10;;;;;;5037794;28;20361;-65
2022/08/06 09:46:55;;;;;;;2.15;0.50;;;25.90;39.60;;;;;;5026057;28;20018;-67
2022/08/06 09:49:21;;;;;;;1.40;0.55;;;26.10;38.40;;;;;;4996869;28;20042;-65
2022/08/06 09:51:46;;;;;;;0.95;0.40;;;26.30;38.10;;;;;;4980055;28;20057;-65
2022/08/06 09:54:15;;;;;;;1.60;0.63;;;26.50;37.80;;;;;;4988982;28;20045;-66
2022/08/06 09:56:44;;;;;;;1.23;0.55;;;26.80;37.50;;;;;;4970849;28;20355;-65
2022/08/06 09:59:11;;;;;;;1.50;0.55;;;26.90;37.30;;;;;;4975018;28;20049;-65
2022/08/06 10:01:39;;;;;;;1.83;0.68;;;26.80;37.40;;;;;;4989036;28;20483;-65
2022/08/06 10:04:05;;;;;;;2.10;0.70;;;26.80;37.50;;;;;;4971357;28;20363;-65
2022/08/06 10:06:31;;;;;;;1.77;0.80;;;26.90;37.30;;;;;;4979587;28;20034;-65
2022/08/06 10:09:08;;;;;;;3.40;0.80;;;27.00;37.20;;;;;;4963535;28;20122;-66
2022/08/06 10:11:37;;;;;;;1.73;0.50;;;27.20;36.70;;;;;;4978185;28;20042;-66
2022/08/06 10:14:03;;;;;;;2.00;0.80;;;27.50;36.70;;;;;;4994095;28;20045;-66
2022/08/06 10:16:32;;;;;;;1.35;0.60;;;27.50;36.40;;;;;;4975033;28;20463;-65
2022/08/06 10:18:58;;;;;;;2.15;0.80;;;27.40;36.40;;;;;;4982367;28;20030;-65
2022/08/06 10:21:29;;;;;;;2.22;0.63;;;27.40;36.30;;;;;;4976524;28;20074;-64
2022/08/06 10:23:59;;;;;;;3.55;1.02;;;27.10;36.30;;;;;;5001532;28;20045;-65
2022/08/06 10:26:28;;;;;;;1.38;0.70;;;26.90;36.50;;;;;;5025129;28;20036;-64
2022/08/06 10:28:55;;;;;;;1.90;0.60;;;26.70;36.90;;;;;;5036750;28;20450;-64
2022/08/06 10:31:21;;;;;;;3.80;0.88;;;26.70;36.90;;;;;;5020652;28;20350;-65
2022/08/06 10:33:55;;;;;;;2.72;0.80;;;26.50;36.80;;;;;;5019926;28;20099;-65
2022/08/06 10:36:43;;;;;;;2.85;0.77;;;26.40;36.70;;;;;;5011830;28;20417;-65
2022/08/06 10:39:09;;;;;;;1.98;0.60;;;26.60;36.50;;;;;;5033961;28;20033;-65
2022/08/06 10:41:38;;;;;;;4.03;0.70;;;26.80;36.30;;;;;;5027334;28;20029;-65
2022/08/06 10:44:04;;;;;;;1.73;0.68;;;27.00;36.20;;;;;;5017399;28;20033;-65
2022/08/06 10:46:31;;;;;;;1.25;0.68;;;27.20;36.10;;;;;;5018246;28;20025;-65
2022/08/06 10:48:58;;;;;;;2.42;0.70;;;27.40;35.90;;;;;;5033197;28;20083;-65
2022/08/06 10:51:25;;;;;;;2.05;0.60;;;27.70;35.80;;;;;;5019404;28;20331;-65
2022/08/06 10:53:51;;;;;;;2.10;0.80;;;27.90;35.50;;;;;;5026789;28;20373;-65
2022/08/06 10:56:17;;;;;;;3.22;0.73;;;28.00;35.30;;;;;;5017209;28;20113;-65
2022/08/06 10:58:44;;;;;;;0.98;0.40;;;28.10;35.10;;;;;;5016161;28;20041;-66
2022/08/06 11:01:29;;;;;;;2.78;0.75;;;28.20;34.90;;;;;;5008766;28;20110;-65
2022/08/06 11:04:19;;;;;;;3.95;0.90;;;28.00;34.80;;;;;;5006364;28;20439;-67
2022/08/06 11:07:25;;;;;;;4.38;1.10;;;27.40;35.10;;;;;;5009796;28;20041;-67
2022/08/06 11:10:03;;;;;;;1.90;0.60;;;26.90;35.70;;;;;;5012418;28;20112;-67
2022/08/06 11:12:40;;;;;;;6.25;1.00;;;26.40;36.10;;;;;;5011020;28;20073;-67
2022/08/06 11:15:07;;;;;;;3.28;0.88;;;26.00;36.30;;;;;;5023909;28;20079;-66
2022/08/06 11:17:44;;;;;;;2.63;0.63;;;25.70;36.60;;;;;;5028515;28;20025;-65
2022/08/06 11:20:31;;;;;;;3.97;0.90;;;25.50;37.10;;;;;;4991122;28;20080;-66
2022/08/06 11:22:58;;;;;;;2.97;0.88;;;25.30;37.90;;;;;;5005480;28;20025;-67
2022/08/06 11:25:44;;;;;;;1.90;0.68;;;25.10;38.30;;;;;;5006430;28;20018;-66
2022/08/06 11:28:13;;;;;;;3.72;0.95;;;25.00;38.80;;;;;;5008607;28;20107;-66
2022/08/06 11:30:45;;;;;;;3.47;0.80;;;24.90;39.20;;;;;;4999368;28;20037;-66
2022/08/06 11:33:13;;;;;;;3.50;0.88;;;24.90;39.40;;;;;;5003182;28;20030;-66
2022/08/06 11:35:41;;;;;;;2.80;0.75;;;24.90;39.50;;;;;;4996720;28;20378;-66
2022/08/06 11:38:12;;;;;;;1.38;0.70;;;24.90;39.50;;;;;;5005439;28;20058;-67
2022/08/06 11:40:54;;;;;;;1.30;0.60;;;24.80;39.50;;;;;;5004742;28;20046;-66
2022/08/06 11:44:04;;;;;;;3.88;0.85;;;24.60;39.70;;;;;;5027324;28;20423;-66
2022/08/06 11:46:33;;;;;;;3.08;0.70;;;24.40;39.80;;;;;;5012345;28;20437;-66
2022/08/06 11:48:59;;;;;;;3.53;0.80;;;24.30;40.10;;;;;;5007291;28;20076;-67
2022/08/06 11:51:46;;;;;;;2.13;0.95;;;24.10;40.20;;;;;;5004300;28;20050;-66
2022/08/06 11:54:12;;;;;;;1.02;0.60;;;24.00;40.30;;;;;;4996284;28;20053;-66
2022/08/06 11:57:09;;;;;;;1.67;0.73;;;23.90;40.40;;;;;;5003962;28;20034;-67
2022/08/06 11:59:34;;;;;;;1.70;0.60;;;23.80;40.60;;;;;;5006421;28;20359;-67
2022/08/06 12:02:08;;;;;;;2.47;0.80;;;23.80;40.70;;;;;;5004442;28;20034;-67
2022/08/06 12:04:36;;;;;;;2.13;0.73;;;23.70;40.90;;;;;;5005747;28;20485;-66
2022/08/06 12:07:33;;;;;;;3.30;1.25;;;23.70;41.00;;;;;;5007483;28;20471;-66
2022/08/06 12:10:05;;;;;;;3.00;0.85;;;23.80;41.00;;;;;;5026033;28;20083;-66
2022/08/06 12:12:43;;;;;;;3.03;0.88;;;23.80;41.20;;;;;;5024341;28;20187;-65
2022/08/06 12:15:11;;;;;;;2.95;0.70;;;23.80;41.30;;;;;;5007742;28;20360;-66
2022/08/06 12:17:38;;;;;;;2.50;0.80;;;23.90;41.40;;;;;;5014292;28;20022;-66
2022/08/06 12:20:05;;;;;;;2.90;1.02;;;24.00;41.30;;;;;;5002425;28;20456;-66
2022/08/06 12:22:35;;;;;;;2.28;0.80;;;24.00;41.20;;;;;;5004702;28;20033;-66
2022/08/06 12:25:04;;;;;;;2.42;0.77;;;24.20;41.10;;;;;;5003684;28;20030;-66
2022/08/06 12:27:32;;;;;;;3.30;1.00;;;24.30;40.90;;;;;;5003957;28;20029;-65
2022/08/06 12:29:59;;;;;;;3.45;1.15;;;24.30;40.70;;;;;;5004455;28;20025;-65
2022/08/06 12:32:29;;;;;;;3.50;0.80;;;24.40;40.90;;;;;;5004084;28;20340;-65
2022/08/06 12:35:00;;;;;;;3.72;0.85;;;24.40;40.80;;;;;;4999807;28;20030;-65
2022/08/06 12:37:45;;;;;;;1.85;0.80;;;24.30;40.70;;;;;;5011565;28;20474;-65
2022/08/06 12:40:29;;;;;;;3.72;1.30;;;24.30;40.80;;;;;;5002325;28;20116;-65
2022/08/06 12:43:09;;;;;;;5.22;1.08;;;24.30;40.70;;;;;;4998922;28;20034;-65
2022/08/06 12:45:35;;;;;;;1.75;0.68;;;24.30;40.90;;;;;;5005937;28;20032;-66
2022/08/06 12:48:07;;;;;;;3.83;0.98;;;24.20;41.10;;;;;;5009530;28;20029;-66
2022/08/06 12:50:36;;;;;;;2.67;0.90;;;24.20;41.80;;;;;;5008826;28;20048;-65
2022/08/06 12:53:11;;;;;;;2.30;1.00;;;24.30;41.10;;;;;;5011255;28;20028;-65
2022/08/06 12:55:46;;;;;;;3.17;0.90;;;24.50;40.80;;;;;;5007708;28;20050;-65
2022/08/06 12:58:15;;;;;;;2.60;0.68;;;24.60;40.60;;;;;;5004949;28;20340;-65
2022/08/06 13:00:42;;;;;;;3.55;0.80;;;24.70;40.50;;;;;;5004085;28;20065;-65
2022/08/06 13:03:09;;;;;;;3.42;1.00;;;24.90;40.30;;;;;;4999591;28;20030;-65
2022/08/06 13:05:36;;;;;;;3.28;0.90;;;25.00;40.20;;;;;;5002586;28;20022;-66
2022/08/06 13:08:03;;;;;;;2.15;0.77;;;25.10;40.20;;;;;;4997244;28;20061;-66
2022/08/06 13:10:29;;;;;;;3.25;1.13;;;25.20;39.90;;;;;;5008626;28;20087;-65